Time;durP1;ratioP1;P1;durP2;ratioP2;P2;SDS_P1;SDS_P2;PMS_P1;PMS_P2;Temp;Humidity;BMP_temperature;BMP_pressure;BME280_temperature;BME280_humidity;BME280_pressure;Samples;Min_cycle;Max_cycle;Signal;HPM_P1;HPM_P2
2022/04/25 05:03:30;;;;;;;21.00;19.80;;;;;;;-141.02;80.39;82129.63;5164813;27;20525;-80
2022/04/25 05:05:57;;;;;;;20.70;19.60;;;;;;;-141.02;79.74;82296.66;5130618;27;20223;-77
2022/04/25 05:08:24;;;;;;;20.23;19.13;;;;;;;-141.02;80.04;82283.06;5130450;27;20283;-81
2022/04/25 05:10:51;;;;;;;20.48;19.38;;;;;;;-141.02;80.84;82273.34;5130346;27;20196;-84
2022/04/25 05:13:18;;;;;;;21.52;20.35;;;;;;;-141.02;78.20;82228.69;5130090;27;20224;-78
2022/04/25 05:15:45;;;;;;;21.70;20.50;;;;;;;-141.02;78.48;82281.13;5130048;27;20650;-76
2022/04/25 05:18:12;;;;;;;21.02;19.90;;;;;;;-141.02;79.20;82255.88;5130287;27;20271;-84
2022/04/25 05:20:41;;;;;;;21.60;20.40;;;;;;;-141.02;78.95;82281.13;5130632;27;20188;-77
2022/04/25 05:23:10;;;;;;;21.40;20.20;;;;;;;-141.02;77.92;82288.88;5130181;27;20192;-77
2022/04/25 05:25:38;;;;;;;21.25;20.15;;;;;;;-141.02;77.32;82257.81;5129886;27;20581;-73
2022/04/25 05:28:06;;;;;;;20.80;19.70;;;;;;;-141.02;76.64;82211.19;5130141;27;20199;-74
2022/04/25 05:30:33;;;;;;;21.40;20.20;;;;;;;-141.02;77.67;82218.97;5129749;27;20196;-75
2022/04/25 05:33:02;;;;;;;20.67;19.58;;;;;;;-141.02;76.45;82257.81;5129953;27;20228;-77
2022/04/25 05:35:31;;;;;;;20.92;19.83;;;;;;;-141.02;74.93;82193.72;5129954;27;20196;-77
2022/04/25 05:37:59;;;;;;;20.88;19.77;;;;;;;-141.02;75.18;82199.53;5129641;27;20193;-73
2022/04/25 05:40:27;;;;;;;21.25;20.15;;;;;;;-141.02;74.83;82164.59;5129867;27;20276;-78
2022/04/25 05:42:57;;;;;;;21.60;20.45;;;;;;;-141.02;74.22;82209.25;5129777;27;20250;-81
2022/04/25 05:45:25;;;;;;;22.23;21.02;;;;;;;-141.02;73.75;82199.53;5129790;27;20207;-78
2022/04/25 05:47:55;;;;;;;21.00;19.90;;;;;;;-141.02;73.94;82218.97;5129394;27;20200;-75
2022/04/25 05:53:08;;;;;;;21.73;20.60;;;;;;;-141.02;75.87;82222.84;5129616;28;20219;-76
2022/04/25 05:55:37;;;;;;;20.88;19.77;;;;;;;-141.02;76.02;82207.31;5129303;27;20214;-77
2022/04/25 05:58:06;;;;;;;21.10;20.00;;;;;;;-141.02;74.99;82182.06;5129519;27;20216;-78
2022/04/25 06:00:34;;;;;;;21.52;20.35;;;;;;;-141.02;72.69;81904.34;5130196;27;20193;-76
2022/04/25 06:03:02;;;;;;;21.40;20.30;;;;;;;-141.02;73.91;82184.00;5123157;27;20235;-74
2022/04/25 06:05:29;;;;;;;20.52;19.42;;;;;;;-141.02;74.31;82044.19;5115733;28;20281;-75
2022/04/25 06:07:57;;;;;;;21.10;20.00;;;;;;;-141.02;76.04;82195.66;5115367;27;20216;-78
2022/04/25 06:10:26;;;;;;;20.98;19.88;;;;;;;-141.02;72.71;82174.28;5115323;28;20780;-74
2022/04/25 06:12:54;;;;;;;22.05;20.65;;;;;;;-141.02;73.13;82156.81;5115197;28;20608;-77
2022/04/25 06:15:24;;;;;;;20.50;19.40;;;;;;;-141.02;77.28;82224.78;5115222;28;20743;-80
2022/04/25 06:17:51;;;;;;;20.48;19.38;;;;;;;-141.02;75.81;82077.19;5115527;28;20189;-76
2022/04/25 06:20:19;;;;;;;20.48;19.38;;;;;;;-141.02;74.63;82137.41;5115385;28;20197;-78
2022/04/25 06:22:52;;;;;;;20.48;19.38;;;;;;;-141.02;75.61;82591.88;5115391;28;20248;-73
2022/04/25 06:25:19;;;;;;;20.77;19.67;;;;;;;-141.02;74.62;82152.94;5115396;28;20197;-75
2022/04/25 06:27:47;;;;;;;20.08;19.08;;;;;;;-141.02;74.80;82187.88;5115250;28;20570;-73
2022/04/25 06:30:14;;;;;;;20.48;19.38;;;;;;;-141.02;74.76;82168.47;5115217;28;20189;-77
2022/04/25 06:32:41;;;;;;;22.38;21.17;;;;;;;-141.02;72.39;82127.69;5115123;28;20247;-76
2022/04/25 06:35:09;;;;;;;20.55;19.45;;;;;;;-141.02;70.42;82112.16;5114865;28;20665;-76
2022/04/25 06:37:36;;;;;;;20.63;19.52;;;;;;;-141.02;70.75;82090.78;5114751;28;20236;-82
2022/04/25 06:40:04;;;;;;;19.80;18.80;;;;;;;-141.02;71.00;82102.44;5114747;28;20280;-77
2022/04/25 06:42:31;;;;;;;20.08;19.08;;;;;;;-141.02;73.08;82114.09;5114727;28;20228;-78
2022/04/25 06:45:00;;;;;;;20.48;19.40;;;;;;;-141.02;71.20;82053.88;5114686;28;20232;-75
2022/04/25 06:47:27;;;;;;;20.70;19.63;;;;;;;-141.02;69.12;82075.25;5114624;28;20279;-75
2022/04/25 06:49:54;;;;;;;20.75;19.65;;;;;;;-141.02;68.42;82067.47;5114557;28;20655;-81
2022/04/25 06:52:21;;;;;;;20.40;19.40;;;;;;;-141.02;68.89;82034.47;5114781;28;20224;-74
2022/04/25 06:54:48;;;;;;;20.48;19.48;;;;;;;-141.02;66.17;82032.53;5114811;28;20197;-79
2022/04/25 06:57:15;;;;;;;20.90;19.80;;;;;;;-141.02;68.10;82024.75;5114374;28;20228;-73
2022/04/25 06:59:43;;;;;;;21.02;19.92;;;;;;;-141.02;66.09;81983.97;5114714;28;20196;-79
2022/04/25 07:02:13;;;;;;;19.90;18.90;;;;;;;-141.02;67.23;82017.00;5114095;28;20784;-76
2022/04/25 07:04:42;;;;;;;20.00;19.00;;;;;;;-141.02;66.18;83835.16;5114578;28;20670;-80
2022/04/25 07:07:09;;;;;;;20.35;19.35;;;;;;;-141.02;66.39;81993.69;5114519;28;20609;-77
2022/04/25 07:09:36;;;;;;;20.85;19.75;;;;;;;-141.02;68.22;82018.94;5114487;28;20719;-74
2022/04/25 07:12:03;;;;;;;20.63;19.63;;;;;;;-141.02;68.33;82036.41;5114358;28;20220;-77
2022/04/25 07:14:33;;;;;;;20.52;19.52;;;;;;;-141.02;69.94;82030.59;5113362;28;20370;-80
2022/04/25 07:17:02;;;;;;;20.90;19.90;;;;;;;-141.02;67.44;82051.94;5114398;28;20226;-78
2022/04/25 07:19:31;;;;;;;20.63;19.63;;;;;;;-141.02;67.58;82030.59;5114245;28;20197;-79
2022/04/25 07:30:14;;;;;;;20.02;19.02;;;;;;;-141.02;64.28;81857.75;5114427;28;20211;-77
2022/04/25 07:32:41;;;;;;;20.38;19.38;;;;;;;-141.02;64.99;81888.81;5113897;28;20763;-75
2022/04/25 07:35:10;;;;;;;20.58;19.58;;;;;;;-141.02;64.73;81842.22;5113749;28;20200;-74
2022/04/25 07:37:38;;;;;;;20.92;19.92;;;;;;;-141.02;63.37;81725.72;5113646;28;20650;-77
2022/04/25 07:40:08;;;;;;;20.40;19.40;;;;;;;-141.02;63.84;81857.75;5113592;28;20203;-75
2022/04/25 07:42:35;;;;;;;20.20;19.20;;;;;;;-141.02;62.32;81822.81;5113596;28;20249;-72
2022/04/25 07:45:02;;;;;;;19.88;18.88;;;;;;;-141.02;62.80;81811.16;5113455;28;20633;-74
2022/04/25 07:47:29;;;;;;;19.48;18.55;;;;;;;-141.02;62.67;81811.16;5113772;28;20189;-73
2022/04/25 07:49:56;;;;;;;19.52;18.58;;;;;;;-141.02;61.15;81752.91;5113664;28;20197;-72
2022/04/25 07:52:25;;;;;;;19.90;18.90;;;;;;;-141.02;62.85;81787.84;5113582;28;20224;-77
2022/04/25 07:54:54;;;;;;;20.33;19.33;;;;;;;-141.02;60.85;81776.19;5113521;28;20243;-73
2022/04/25 07:57:21;;;;;;;20.38;19.38;;;;;;;-141.02;61.84;81772.31;5113543;28;20217;-72
2022/04/25 07:59:48;;;;;;;19.95;18.95;;;;;;;-141.02;60.62;81725.72;5113198;28;20189;-77
2022/04/25 08:02:17;;;;;;;20.48;19.48;;;;;;;-141.02;61.31;81762.59;5113087;28;20248;-80
2022/04/25 08:04:45;;;;;;;20.10;19.10;;;;;;;-141.02;60.27;81747.06;5113132;28;20193;-71
2022/04/25 08:07:12;;;;;;;19.85;18.85;;;;;;;-141.02;61.86;81782.03;5113413;28;20205;-78
2022/04/25 08:09:41;;;;;;;19.85;18.85;;;;;;;-141.02;62.03;81403.38;5113380;28;20227;-77
2022/04/25 08:20:22;;;;;;;24.30;22.95;;;;;;;-141.02;60.64;81749.00;5113068;28;20180;-73
2022/04/25 08:22:50;;;;;;;19.70;18.70;;;;;;;-141.02;60.79;81727.66;5113198;28;20253;-74
2022/04/25 08:25:18;;;;;;;19.73;18.73;;;;;;;-141.02;58.72;81644.16;5112845;28;20197;-80
2022/04/25 08:27:45;;;;;;;20.55;19.48;;;;;;;-141.02;60.01;81714.06;5113010;28;20616;-77
2022/04/25 08:30:12;;;;;;;19.98;18.98;;;;;;;-141.02;59.66;81729.59;5112821;28;20250;-76
2022/04/25 08:32:40;;;;;;;19.48;18.48;;;;;;;-141.02;59.65;81659.69;5112681;28;20224;-77
2022/04/25 08:35:09;;;;;;;20.52;19.42;;;;;;;-141.02;60.63;81729.59;5112751;28;20193;-78
2022/04/25 08:37:36;;;;;;;20.05;19.05;;;;;;;-141.02;60.56;81684.94;5113640;28;20193;-79
2022/04/25 08:40:04;;;;;;;19.85;18.85;;;;;;;-141.02;58.43;81667.47;5112709;28;20650;-74
2022/04/25 08:42:33;;;;;;;20.20;19.10;;;;;;;-141.02;60.31;81698.53;5112696;28;20233;-78
2022/04/25 08:45:05;;;;;;;19.95;18.85;;;;;;;-141.02;58.45;81655.81;5112861;28;20666;-73
2022/04/25 08:47:36;;;;;;;19.50;18.50;;;;;;;-141.02;57.74;81642.22;5117425;27;20760;-72
2022/04/25 08:50:02;;;;;;;19.77;18.77;;;;;;;-141.02;58.16;81601.44;5115134;27;20193;-74
2022/04/25 08:52:31;;;;;;;19.85;18.85;;;;;;;-141.02;57.27;81550.94;5129058;27;20310;-76
2022/04/25 08:54:58;;;;;;;20.08;19.00;;;;;;;-141.02;57.19;81479.09;5131315;28;20779;-72
2022/04/25 08:57:28;;;;;;;19.65;18.65;;;;;;;-141.02;56.72;81496.59;5133177;27;20193;-73
2022/04/25 08:59:59;;;;;;;19.60;18.60;;;;;;;-141.02;55.21;81438.34;5132871;27;20197;-77
2022/04/25 09:02:26;;;;;;;18.65;17.65;;;;;;;-141.02;55.40;81393.69;5123876;27;20288;-72
2022/04/25 09:04:53;;;;;;;19.33;18.33;;;;;;;-141.02;55.20;81364.56;5124045;27;20255;-74
2022/04/25 09:07:20;;;;;;;21.00;19.80;;;;;;;-141.02;54.71;81395.63;5112234;28;20197;-75
2022/04/25 09:09:47;;;;;;;19.88;18.77;;;;;;;-141.02;53.60;81228.63;5113095;28;20670;-72
2022/04/25 09:12:17;;;;;;;19.52;18.48;;;;;;;-141.02;54.38;81253.88;5125064;28;20753;-76
2022/04/25 09:14:46;;;;;;;19.70;18.60;;;;;;;-141.02;53.96;81292.72;5123902;27;20722;-73
2022/04/25 09:17:15;;;;;;;19.42;18.42;;;;;;;-141.02;55.46;81319.91;5128705;27;20288;-76
2022/04/25 09:19:42;;;;;;;19.70;18.60;;;;;;;-141.02;54.46;81310.19;5127823;27;20202;-75
2022/04/25 09:22:10;;;;;;;19.83;18.73;;;;;;;-141.02;54.58;81302.41;5132337;28;20204;-74
2022/04/25 09:24:44;;;;;;;19.23;18.23;;;;;;;-141.02;55.75;81349.00;5128728;28;20726;-73
2022/04/25 09:27:16;;;;;;;19.15;18.15;;;;;;;-141.02;53.25;81185.94;5130171;28;20196;-76
2022/04/25 09:29:43;;;;;;;19.50;18.45;;;;;;;-141.02;52.56;81147.09;5121619;27;20197;-82
2022/04/25 09:32:13;;;;;;;20.10;19.00;;;;;;;-141.02;53.11;81172.34;5102759;28;20196;-77
2022/04/25 09:37:41;;;;;;;19.60;18.60;;;;;;;-141.02;52.01;81168.44;5113094;27;20200;-72
2022/04/25 09:40:09;;;;;;;19.55;18.55;;;;;;;-141.02;52.42;81141.28;5129857;27;20666;-72
2022/04/25 09:42:37;;;;;;;19.65;18.65;;;;;;;-141.02;55.32;81248.06;5136602;27;20619;-72
2022/04/25 09:45:06;;;;;;;19.55;18.55;;;;;;;-141.02;56.01;81325.72;5136613;27;20200;-74
2022/04/25 09:47:36;;;;;;;20.30;19.27;;;;;;;-141.02;58.00;81434.44;5136239;27;20196;-73
2022/04/25 09:50:07;;;;;;;19.70;18.70;;;;;;;-141.02;56.68;81444.16;5136156;27;20657;-76
2022/04/25 09:52:36;;;;;;;19.67;18.67;;;;;;;-141.02;55.92;81395.63;5133401;27;20591;-82
2022/04/25 09:55:14;;;;;;;19.80;18.80;;;;;;;-141.02;56.94;81492.69;5121729;27;20714;-78
2022/04/25 09:57:42;;;;;;;19.88;18.88;;;;;;;-141.02;57.47;81492.69;5136016;27;20577;-74
2022/04/25 10:00:10;;;;;;;19.80;18.80;;;;;;;-141.02;54.89;81345.13;5129363;27;20234;-86
2022/04/25 10:02:39;;;;;;;19.05;18.15;;;;;;;-141.02;54.90;81228.63;5133811;27;20300;-83
2022/04/25 10:05:16;;;;;;;19.15;18.25;;;;;;;-141.02;55.33;81306.31;5135878;27;20566;-73
2022/04/25 10:07:44;;;;;;;19.55;18.55;;;;;;;-141.02;53.37;81193.69;5136270;27;20242;-71
2022/04/25 10:10:11;;;;;;;19.40;18.40;;;;;;;-141.02;55.54;81209.22;5136147;27;20196;-80
2022/04/25 10:12:39;;;;;;;19.42;18.42;;;;;;;-141.02;54.12;81143.22;5132748;27;20641;-78
2022/04/25 10:15:08;;;;;;;21.02;19.77;;;;;;;-141.02;52.51;81119.91;5136101;27;20189;-87
2022/04/25 10:17:38;;;;;;;19.70;18.70;;;;;;;-141.02;55.62;81279.13;5124780;27;20719;-71
2022/04/25 10:20:07;;;;;;;19.83;18.83;;;;;;;-141.02;53.61;81158.75;5136079;27;20189;-81
2022/04/25 10:22:36;;;;;;;21.30;19.83;;;;;;;-141.02;54.94;81182.03;5117495;27;20205;-73
2022/04/25 10:25:04;;;;;;;20.40;19.30;;;;;;;-141.02;56.57;81321.84;5135884;27;20193;-71
2022/04/25 10:27:35;;;;;;;19.67;18.67;;;;;;;-141.02;56.07;81310.19;5135829;27;20202;-74
2022/04/25 10:30:08;;;;;;;19.58;18.58;;;;;;;-141.02;55.28;81302.41;5135512;27;20184;-74
2022/04/25 10:32:35;;;;;;;19.48;18.48;;;;;;;-141.02;55.91;81310.19;5128342;27;20208;-73
2022/04/25 10:35:04;;;;;;;19.65;18.65;;;;;;;-141.02;55.76;81372.31;5135432;27;20192;-75
2022/04/25 10:37:41;;;;;;;20.25;19.15;;;;;;;-141.02;55.05;81333.47;5135649;27;20228;-78
2022/04/25 10:40:09;;;;;;;20.67;19.48;;;;;;;-141.02;55.87;81424.75;5135352;27;20216;-71
2022/04/25 10:45:55;;;;;;;20.10;19.00;;;;;;;-141.02;55.19;81403.38;5130649;27;20232;-87
2022/04/25 10:48:22;;;;;;;19.48;18.48;;;;;;;-141.02;56.29;81387.84;5135164;27;20241;-71
2022/04/25 10:51:13;;;;;;;21.23;19.98;;;;;;;-141.02;55.16;81352.91;5126311;27;20245;-78
2022/04/25 10:54:02;;;;;;;19.50;18.50;;;;;;;-141.02;55.00;81269.41;5111420;27;20750;-72
2022/04/25 10:56:29;;;;;;;19.60;18.58;;;;;;;-141.02;53.46;81193.69;5123745;27;20192;-73
2022/04/25 10:59:24;;;;;;;19.65;18.65;;;;;;;-141.02;54.37;81189.81;5128533;27;20196;-81
2022/04/25 11:01:52;;;;;;;19.58;18.58;;;;;;;-141.02;52.46;81084.97;5119481;27;20718;-72
2022/04/25 11:04:20;;;;;;;19.33;18.33;;;;;;;-141.02;51.56;81065.56;5130314;27;20192;-79
2022/04/25 11:06:47;;;;;;;19.55;18.55;;;;;;;-141.02;52.55;81086.91;5120118;27;20232;-85
2022/04/25 11:09:40;;;;;;;20.00;18.90;;;;;;;-141.02;52.87;81131.56;5122961;27;20200;-73
2022/04/25 11:12:08;;;;;;;19.65;18.65;;;;;;;-141.02;52.06;81088.84;5106826;27;20615;-71
2022/04/25 11:14:35;;;;;;;19.63;18.63;;;;;;;-141.02;52.04;81032.56;5130883;27;20266;-75
2022/04/25 11:17:13;;;;;;;20.60;19.52;;;;;;;-141.02;51.51;81053.91;5109603;27;20205;-75
2022/04/25 11:19:48;;;;;;;19.70;18.70;;;;;;;-141.02;51.99;81017.03;5113948;28;20193;-71
2022/04/25 11:22:53;;;;;;;20.50;19.50;;;;;;;-141.02;51.20;80929.66;5116982;27;20576;-72
2022/04/25 11:25:41;;;;;;;20.25;19.23;;;;;;;-141.02;51.07;80873.34;5065369;28;20349;-76
2022/04/25 11:28:11;;;;;;;20.80;19.70;;;;;;;-141.02;53.11;80793.75;5110797;27;20197;-70
2022/04/25 11:30:39;;;;;;;20.23;19.23;;;;;;;-141.02;51.49;80927.72;5134234;27;20245;-71
2022/04/25 11:33:08;;;;;;;20.65;19.65;;;;;;;-141.02;51.34;80879.19;5134429;27;20274;-73
2022/04/25 11:35:35;;;;;;;20.13;19.13;;;;;;;-141.02;50.32;80883.06;5134703;27;20254;-71
2022/04/25 11:38:02;;;;;;;20.20;19.10;;;;;;;-141.02;51.50;80949.06;5114907;27;20240;-72
2022/04/25 11:40:29;;;;;;;49.00;19.92;;;;;;;-141.02;52.04;80912.19;5104010;27;20279;-78
2022/04/25 11:42:59;;;;;;;20.40;19.30;;;;;;;-141.02;51.58;80914.13;5100069;27;20619;-79
2022/04/25 11:45:27;;;;;;;19.10;18.10;;;;;;;-141.02;50.91;80836.47;5113989;28;20674;-81
2022/04/25 11:47:56;;;;;;;20.05;19.05;;;;;;;-141.02;50.79;80791.81;5113231;28;20189;-80
2022/04/25 11:50:23;;;;;;;19.73;18.73;;;;;;;-141.02;51.03;80896.66;5113793;28;20260;-78
2022/04/25 11:52:54;;;;;;;20.10;19.10;;;;;;;-141.02;51.90;80947.13;5113822;27;20196;-85
2022/04/25 11:55:32;;;;;;;19.63;18.63;;;;;;;-141.02;52.11;80949.06;5114638;27;20204;-76
2022/04/25 11:58:01;;;;;;;20.27;19.17;;;;;;;-141.02;52.48;81038.38;5111600;28;20228;-74
2022/04/25 12:00:28;;;;;;;21.95;20.75;;;;;;;-141.02;52.00;80962.66;5111707;28;20205;-76
2022/04/25 12:02:55;;;;;;;20.90;19.80;;;;;;;-141.02;51.95;80894.72;5128243;27;20277;-75
2022/04/25 12:05:27;;;;;;;20.65;19.55;;;;;;;-141.02;52.31;80929.66;5127826;27;20737;-71
2022/04/25 12:16:08;;;;;;;20.70;19.60;;;;;;;-141.02;52.38;80925.78;5091694;28;20189;-81
2022/04/25 12:18:35;;;;;;;20.90;19.80;;;;;;;-141.02;52.21;80987.91;5112481;27;20189;-79
2022/04/25 12:21:05;;;;;;;20.60;19.60;;;;;;;-141.02;52.48;80984.03;5130355;27;20241;-75
2022/04/25 12:23:33;;;;;;;20.70;19.60;;;;;;;-141.02;52.88;80933.53;5128646;27;20200;-78
2022/04/25 12:26:03;;;;;;;20.80;19.70;;;;;;;-141.02;52.33;80968.47;5114843;27;20276;-84
2022/04/25 12:28:37;;;;;;;64.00;30.98;;;;;;;-141.02;52.47;80886.94;5104689;27;20189;-78
2022/04/25 12:31:08;;;;;;;20.55;19.45;;;;;;;-141.02;51.34;80820.94;5112690;28;20189;-77
2022/04/25 12:33:37;;;;;;;20.85;19.75;;;;;;;-141.02;52.35;80875.31;5112591;28;20593;-80
2022/04/25 12:36:14;;;;;;;20.67;19.58;;;;;;;-141.02;51.95;80925.78;5110712;28;20205;-82
2022/04/25 12:38:43;;;;;;;20.95;19.85;;;;;;;-141.02;52.85;80937.41;5112908;28;20216;-81
2022/04/25 12:41:21;;;;;;;20.60;19.50;;;;;;;-141.02;53.20;80912.19;5112870;28;20204;-78
2022/04/25 12:43:53;;;;;;;20.77;19.67;;;;;;;-141.02;51.49;80805.41;5113071;28;20189;-79
2022/04/25 12:46:37;;;;;;;19.70;18.70;;;;;;;-141.02;51.11;80848.13;5110628;28;20629;-80
2022/04/25 12:49:09;;;;;;;20.33;19.33;;;;;;;-141.02;52.30;80852.00;5103303;28;20269;-76
2022/04/25 12:51:39;;;;;;;20.27;19.27;;;;;;;-141.02;52.25;80828.72;5124137;27;20271;-74
2022/04/25 12:54:08;;;;;;;20.65;19.60;;;;;;;-141.02;52.18;80743.28;5133877;27;20228;-75
2022/04/25 12:56:36;;;;;;;20.48;19.48;;;;;;;-141.02;51.25;80727.75;5101607;27;20197;-72
2022/04/25 12:59:04;;;;;;;20.50;19.50;;;;;;;-141.02;51.53;80747.19;5093254;28;20235;-78
2022/04/25 13:01:34;;;;;;;20.75;19.75;;;;;;;-141.02;50.17;80702.53;5109669;28;20227;-79
2022/04/25 13:04:17;;;;;;;23.23;21.88;;;;;;;-141.02;50.18;80657.88;5126753;27;20198;-78
2022/04/25 13:06:45;;;;;;;21.27;20.17;;;;;;;-141.02;51.86;80768.53;5109877;28;20201;-75
2022/04/25 13:09:14;;;;;;;19.80;18.80;;;;;;;-141.02;50.99;80768.53;5112847;28;20224;-75
2022/04/25 13:11:42;;;;;;;20.08;19.08;;;;;;;-141.02;51.02;80751.06;5116139;27;20196;-79
2022/04/25 13:14:11;;;;;;;20.17;19.17;;;;;;;-141.02;50.85;80692.81;5129010;27;20220;-76
2022/04/25 13:16:38;;;;;;;20.10;19.10;;;;;;;-141.02;50.79;80754.94;5137484;27;20196;-81
2022/04/25 13:19:05;;;;;;;19.77;18.77;;;;;;;-141.02;51.15;80753.00;5137319;27;20249;-79
2022/04/25 13:21:34;;;;;;;19.98;18.98;;;;;;;-141.02;51.25;80751.06;5127353;27;20196;-72
2022/04/25 13:24:02;;;;;;;20.25;19.25;;;;;;;-141.02;50.97;80669.53;5137124;27;20199;-75
2022/04/25 13:26:30;;;;;;;19.90;18.90;;;;;;;-141.02;50.76;80704.47;5115832;27;20255;-78
2022/04/25 13:28:57;;;;;;;20.00;19.00;;;;;;;-141.02;51.50;80669.53;5112337;28;20705;-82
2022/04/25 13:31:25;;;;;;;19.52;18.55;;;;;;;-141.02;50.98;80675.34;5116243;28;20193;-77
2022/04/25 13:33:52;;;;;;;20.20;19.20;;;;;;;-141.02;51.09;80673.41;5116453;28;20315;-73
2022/04/25 13:36:19;;;;;;;19.38;18.48;;;;;;;-141.02;50.79;80654.00;5117230;27;20634;-81
2022/04/25 13:38:47;;;;;;;20.10;19.10;;;;;;;-141.02;50.96;80634.59;5116295;28;20280;-76
2022/04/25 13:41:14;;;;;;;20.00;19.00;;;;;;;-141.02;50.91;80661.75;5116922;28;20270;-84
2022/04/25 13:43:43;;;;;;;19.88;18.88;;;;;;;-141.02;50.98;80661.75;5116591;28;20189;-77
2022/04/25 13:46:10;;;;;;;21.17;20.00;;;;;;;-141.02;50.83;80622.94;5116492;28;20258;-74
2022/04/25 13:48:39;;;;;;;20.20;19.20;;;;;;;-141.02;50.70;80681.19;5116520;28;20190;-78
2022/04/25 13:51:07;;;;;;;20.65;19.55;;;;;;;-141.02;51.36;80622.94;5116079;28;20220;-75
2022/04/25 13:53:34;;;;;;;20.42;19.42;;;;;;;-141.02;51.28;80628.75;5123136;27;20753;-75
2022/04/25 13:56:03;;;;;;;19.65;18.67;;;;;;;-141.02;50.91;80605.47;5136407;27;20188;-79
2022/04/25 13:58:31;;;;;;;20.02;19.02;;;;;;;-141.02;51.49;80681.19;5137050;27;20192;-77
2022/04/25 14:00:58;;;;;;;20.35;19.35;;;;;;;-141.02;50.82;80595.75;5138006;27;20189;-75
2022/04/25 14:03:27;;;;;;;20.30;19.30;;;;;;;-141.02;50.48;80572.47;5136231;27;20269;-78
2022/04/25 14:05:56;;;;;;;20.02;19.02;;;;;;;-141.02;50.20;80500.66;5136296;27;20223;-76
2022/04/25 14:08:24;;;;;;;20.48;19.45;;;;;;;-141.02;50.54;80456.00;5133939;27;20227;-81
2022/04/25 14:10:52;;;;;;;20.33;19.33;;;;;;;-141.02;50.91;80522.00;5115958;27;20640;-78
2022/04/25 14:13:20;;;;;;;20.23;19.23;;;;;;;-141.02;50.92;80657.88;5115289;28;20204;-78
2022/04/25 14:15:48;;;;;;;20.30;19.20;;;;;;;-141.02;52.65;80766.59;5115401;28;20280;-76
2022/04/25 14:18:16;;;;;;;19.83;18.83;;;;;;;-141.02;53.15;80832.59;5115128;28;20730;-75
2022/04/25 14:20:43;;;;;;;19.90;18.90;;;;;;;-141.02;52.82;80789.88;5111048;27;20665;-83
2022/04/25 14:23:12;;;;;;;19.80;18.80;;;;;;;-141.02;52.32;80712.22;5103492;28;20197;-79
2022/04/25 14:25:40;;;;;;;19.75;18.75;;;;;;;-141.02;51.91;80522.00;5103237;28;20194;-84
2022/04/25 14:28:08;;;;;;;19.80;18.80;;;;;;;-141.02;51.60;80675.34;5123422;27;20196;-80
2022/04/25 14:30:36;;;;;;;19.70;18.70;;;;;;;-141.02;52.50;80735.53;5124579;27;20236;-77
2022/04/25 14:33:03;;;;;;;19.77;18.77;;;;;;;-141.02;52.84;80805.41;5130431;27;20201;-75
2022/04/25 14:35:30;;;;;;;19.80;18.80;;;;;;;-141.02;53.14;80706.41;5136562;27;20270;-75
2022/04/25 14:37:57;;;;;;;19.98;18.98;;;;;;;-141.02;52.98;80758.81;5136686;27;20245;-80
2022/04/25 14:40:26;;;;;;;20.27;19.27;;;;;;;-141.02;52.08;80615.16;5137034;27;20214;-79
2022/04/25 14:42:53;;;;;;;20.27;19.27;;;;;;;-141.02;52.01;80716.13;5112955;27;20232;-77
2022/04/25 14:45:21;;;;;;;20.10;19.10;;;;;;;-141.02;53.45;80879.19;5115947;28;20201;-78
2022/04/25 14:47:48;;;;;;;20.08;19.08;;;;;;;-141.02;54.05;80832.59;5115541;27;20197;-75
2022/04/25 14:55:55;;;;;;;20.33;19.33;;;;;;;-141.02;52.38;80743.28;5113189;28;20596;-80
2022/04/25 14:58:23;;;;;;;19.55;18.60;;;;;;;-141.02;52.58;80716.13;5114665;28;20281;-80
2022/04/25 15:01:00;;;;;;;20.30;19.20;;;;;;;-141.02;52.66;80720.00;5112679;28;20193;-80
2022/04/25 15:03:37;;;;;;;19.83;18.83;;;;;;;-141.02;53.14;80768.53;5107758;28;20223;-84
2022/04/25 15:06:06;;;;;;;20.20;19.20;;;;;;;-141.02;52.88;80749.13;5103805;27;20665;-78
2022/04/25 15:08:33;;;;;;;20.70;19.60;;;;;;;-141.02;52.51;80751.06;5114543;28;20250;-78
2022/04/25 15:11:03;;;;;;;20.85;19.85;;;;;;;-141.02;53.34;80778.25;5123020;27;20677;-84
2022/04/25 15:13:32;;;;;;;20.58;19.58;;;;;;;-141.02;53.64;80906.38;5130980;27;20551;-83
2022/04/25 15:16:01;;;;;;;20.77;19.67;;;;;;;-141.02;54.09;80584.13;5124087;27;20225;-79
2022/04/25 15:18:28;;;;;;;19.90;18.90;;;;;;;-141.02;54.36;80972.38;5114164;28;20658;-80
2022/04/25 15:20:55;;;;;;;19.77;18.77;;;;;;;-141.02;54.86;81042.25;5112450;28;20201;-83
2022/04/25 15:23:22;;;;;;;20.00;19.00;;;;;;;-141.02;55.17;81050.03;5112755;28;20211;-80
2022/04/25 15:25:49;;;;;;;20.55;19.45;;;;;;;-141.02;55.00;81030.59;5133842;27;20644;-78
2022/04/25 15:28:18;;;;;;;20.52;19.45;;;;;;;-141.02;54.37;80954.91;5134396;27;20226;-80
2022/04/25 15:30:45;;;;;;;20.00;19.00;;;;;;;-141.02;54.35;80933.53;5134778;27;20196;-83
2022/04/25 15:33:12;;;;;;;20.20;19.20;;;;;;;-141.02;53.83;80910.25;5115899;27;20237;-81
2022/04/25 15:35:39;;;;;;;20.20;19.10;;;;;;;-141.02;53.54;80883.06;5122021;27;20217;-82
2022/04/25 15:38:07;;;;;;;20.13;19.08;;;;;;;-141.02;53.75;82162.66;5134329;27;20208;-81
2022/04/25 15:40:36;;;;;;;19.90;18.90;;;;;;;-141.02;54.18;80921.91;5125086;27;20652;-80
2022/04/25 15:43:03;;;;;;;20.08;19.00;;;;;;;-141.02;54.36;80910.25;5103648;28;20216;-82
2022/04/25 15:45:32;;;;;;;19.90;18.90;;;;;;;-141.02;54.30;80935.47;5113562;28;20197;-80
2022/04/25 15:47:59;;;;;;;20.23;19.13;;;;;;;-141.02;53.95;80910.25;5113727;28;20219;-79
2022/04/25 15:50:27;;;;;;;20.02;18.92;;;;;;;-141.02;54.27;80976.25;5111385;28;20197;-79
2022/04/25 15:52:54;;;;;;;19.90;18.90;;;;;;;-141.02;54.48;80972.38;5113049;27;20193;-83
2022/04/25 15:58:05;;;;;;;21.17;20.08;;;;;;;-141.02;54.36;80949.06;5134105;27;20272;-78
2022/04/25 16:00:34;;;;;;;20.70;19.60;;;;;;;-141.02;53.97;80883.06;5119450;27;20193;-81
2022/04/25 16:03:01;;;;;;;20.83;19.73;;;;;;;-141.02;54.34;80925.78;5113256;28;20601;-81
2022/04/25 16:05:28;;;;;;;20.83;19.73;;;;;;;-141.02;54.42;80972.38;5114344;27;20231;-80
2022/04/25 16:07:55;;;;;;;20.67;19.58;;;;;;;-141.02;54.55;80999.53;5127895;27;20247;-80
2022/04/25 16:10:22;;;;;;;20.92;19.83;;;;;;;-141.02;54.69;81356.78;5134268;27;20199;-83
2022/04/25 16:12:49;;;;;;;21.00;19.90;;;;;;;-141.02;54.66;80776.28;5106599;27;20292;-79
2022/04/25 16:15:16;;;;;;;20.73;19.63;;;;;;;-141.02;54.84;81026.72;5127574;27;20223;-81
2022/04/25 16:17:45;;;;;;;20.58;19.48;;;;;;;-141.02;55.03;81001.50;5121831;27;20632;-84
2022/04/25 16:20:12;;;;;;;20.98;19.88;;;;;;;-141.02;54.72;80982.06;5132475;27;20208;-84
2022/04/25 16:22:39;;;;;;;20.83;19.73;;;;;;;-141.02;55.04;81038.38;5134094;27;20281;-79
2022/04/25 16:25:07;;;;;;;20.95;19.85;;;;;;;-141.02;54.96;81061.66;5111370;27;20209;-85
2022/04/25 16:27:34;;;;;;;20.80;19.70;;;;;;;-141.02;55.43;80937.41;5111237;28;20239;-84
2022/04/25 16:30:03;;;;;;;20.80;19.70;;;;;;;-141.02;55.72;81088.84;5112698;28;20284;-77
2022/04/25 16:32:30;;;;;;;20.70;19.60;;;;;;;-141.02;55.75;81123.81;5112742;28;20201;-79
2022/04/25 16:34:59;;;;;;;20.88;19.77;;;;;;;-141.02;55.98;81135.44;5113501;28;20594;-82
2022/04/25 16:37:26;;;;;;;20.85;19.75;;;;;;;-141.02;56.50;81178.16;5112851;28;20232;-79
2022/04/25 16:39:53;;;;;;;21.05;19.95;;;;;;;-141.02;56.01;81158.75;5112990;28;20254;-79
2022/04/25 16:42:20;;;;;;;20.90;19.80;;;;;;;-141.02;56.21;81172.34;5113367;28;20250;-82
2022/04/25 16:44:47;;;;;;;20.83;19.73;;;;;;;-141.02;56.59;81201.47;5113424;28;20562;-81
2022/04/25 16:47:14;;;;;;;20.75;19.65;;;;;;;-141.02;56.43;81170.41;5112985;28;20667;-82
2022/04/25 16:49:41;;;;;;;20.48;19.38;;;;;;;-141.02;56.97;81040.31;5113421;28;20197;-81
2022/04/25 16:52:10;;;;;;;21.10;20.00;;;;;;;-141.02;57.08;81205.34;5112992;28;20193;-82
2022/04/25 16:54:37;;;;;;;20.77;19.67;;;;;;;-141.02;56.76;81217.00;5112874;28;20327;-83